sensor_id;sensor_type;location;lat;lon;timestamp;temperature;humidity
26621;DHT22;14253;44.840;10.444;2023-04-15T00:00:51;10.60;99.90
26621;DHT22;14253;44.840;10.444;2023-04-15T00:03:18;10.50;99.90
26621;DHT22;14253;44.840;10.444;2023-04-15T00:05:44;10.30;99.90
26621;DHT22;14253;44.840;10.444;2023-04-15T00:08:10;10.00;99.90
26621;DHT22;14253;44.840;10.444;2023-04-15T00:10:35;9.70;99.90
26621;DHT22;14253;44.840;10.444;2023-04-15T00:13:09;9.50;99.90
26621;DHT22;14253;44.840;10.444;2023-04-15T00:15:45;9.10;99.90
26621;DHT22;14253;44.840;10.444;2023-04-15T00:18:15;9.10;99.90
26621;DHT22;14253;44.840;10.444;2023-04-15T00:20:41;9.00;99.90
26621;DHT22;14253;44.840;10.444;2023-04-15T00:23:07;9.00;99.90
26621;DHT22;14253;44.840;10.444;2023-04-15T00:25:33;9.00;99.90
26621;DHT22;14253;44.840;10.444;2023-04-15T00:27:59;8.90;99.90
26621;DHT22;14253;44.840;10.444;2023-04-15T00:30:25;9.00;99.90
26621;DHT22;14253;44.840;10.444;2023-04-15T00:32:51;9.10;99.90
26621;DHT22;14253;44.840;10.444;2023-04-15T00:35:20;9.20;99.90
26621;DHT22;14253;44.840;10.444;2023-04-15T00:37:46;9.10;99.90
26621;DHT22;14253;44.840;10.444;2023-04-15T00:40:12;9.20;99.90
26621;DHT22;14253;44.840;10.444;2023-04-15T00:42:38;9.30;99.90
26621;DHT22;14253;44.840;10.444;2023-04-15T00:45:05;9.20;99.90
26621;DHT22;14253;44.840;10.444;2023-04-15T00:47:32;9.10;99.90
26621;DHT22;14253;44.840;10.444;2023-04-15T00:50:00;9.00;99.90
26621;DHT22;14253;44.840;10.444;2023-04-15T00:52:26;8.90;99.90
26621;DHT22;14253;44.840;10.444;2023-04-15T00:54:53;8.80;99.90
26621;DHT22;14253;44.840;10.444;2023-04-15T00:57:20;8.70;99.90
26621;DHT22;14253;44.840;10.444;2023-04-15T00:59:47;8.60;99.90
26621;DHT22;14253;44.840;10.444;2023-04-15T01:02:14;8.50;99.90
26621;DHT22;14253;44.840;10.444;2023-04-15T01:04:40;8.40;99.90
26621;DHT22;14253;44.840;10.444;2023-04-15T01:07:06;8.30;99.90
26621;DHT22;14253;44.840;10.444;2023-04-15T01:09:32;8.30;99.90
26621;DHT22;14253;44.840;10.444;2023-04-15T01:11:58;8.20;99.90
26621;DHT22;14253;44.840;10.444;2023-04-15T01:14:24;8.20;99.90
26621;DHT22;14253;44.840;10.444;2023-04-15T01:16:52;8.10;99.90
26621;DHT22;14253;44.840;10.444;2023-04-15T01:19:18;8.00;99.90
26621;DHT22;14253;44.840;10.444;2023-04-15T01:21:44;8.00;99.90
26621;DHT22;14253;44.840;10.444;2023-04-15T01:24:10;7.90;99.90
26621;DHT22;14253;44.840;10.444;2023-04-15T01:26:39;7.70;99.90
26621;DHT22;14253;44.840;10.444;2023-04-15T01:29:07;7.70;99.90
26621;DHT22;14253;44.840;10.444;2023-04-15T01:31:33;7.60;99.90
26621;DHT22;14253;44.840;10.444;2023-04-15T01:34:00;7.60;99.90
26621;DHT22;14253;44.840;10.444;2023-04-15T01:36:26;7.60;99.90
26621;DHT22;14253;44.840;10.444;2023-04-15T01:38:53;7.60;99.90
26621;DHT22;14253;44.840;10.444;2023-04-15T01:41:27;7.60;99.90
26621;DHT22;14253;44.840;10.444;2023-04-15T01:43:53;7.70;99.90
26621;DHT22;14253;44.840;10.444;2023-04-15T01:46:19;7.80;99.90
26621;DHT22;14253;44.840;10.444;2023-04-15T01:48:45;7.80;99.90
26621;DHT22;14253;44.840;10.444;2023-04-15T01:51:11;7.70;99.90
26621;DHT22;14253;44.840;10.444;2023-04-15T01:53:37;7.70;99.90
26621;DHT22;14253;44.840;10.444;2023-04-15T01:56:03;7.70;99.90
26621;DHT22;14253;44.840;10.444;2023-04-15T01:58:29;7.70;99.90
26621;DHT22;14253;44.840;10.444;2023-04-15T02:00:56;7.60;99.90
26621;DHT22;14253;44.840;10.444;2023-04-15T02:03:23;7.60;99.90
26621;DHT22;14253;44.840;10.444;2023-04-15T02:05:51;7.60;99.90
26621;DHT22;14253;44.840;10.444;2023-04-15T02:08:17;7.60;99.90
26621;DHT22;14253;44.840;10.444;2023-04-15T02:10:43;7.50;99.90
26621;DHT22;14253;44.840;10.444;2023-04-15T02:13:09;7.60;99.90
26621;DHT22;14253;44.840;10.444;2023-04-15T02:15:35;7.60;99.90
26621;DHT22;14253;44.840;10.444;2023-04-15T02:18:01;7.60;99.90
26621;DHT22;14253;44.840;10.444;2023-04-15T02:20:27;7.70;99.90
26621;DHT22;14253;44.840;10.444;2023-04-15T02:22:57;7.80;99.90
26621;DHT22;14253;44.840;10.444;2023-04-15T02:25:22;7.90;99.90
26621;DHT22;14253;44.840;10.444;2023-04-15T02:27:48;7.90;99.90
26621;DHT22;14253;44.840;10.444;2023-04-15T02:30:15;7.80;99.90
26621;DHT22;14253;44.840;10.444;2023-04-15T02:32:41;7.70;99.90
26621;DHT22;14253;44.840;10.444;2023-04-15T02:35:09;7.70;99.90
26621;DHT22;14253;44.840;10.444;2023-04-15T02:37:36;7.60;99.90
26621;DHT22;14253;44.840;10.444;2023-04-15T02:40:09;7.60;99.90
26621;DHT22;14253;44.840;10.444;2023-04-15T02:42:39;7.60;99.90
26621;DHT22;14253;44.840;10.444;2023-04-15T02:45:08;7.50;99.90
26621;DHT22;14253;44.840;10.444;2023-04-15T02:47:35;7.50;99.90
26621;DHT22;14253;44.840;10.444;2023-04-15T02:50:04;7.50;99.90
26621;DHT22;14253;44.840;10.444;2023-04-15T02:52:31;7.50;99.90
26621;DHT22;14253;44.840;10.444;2023-04-15T02:54:57;7.50;99.90
26621;DHT22;14253;44.840;10.444;2023-04-15T02:57:26;7.50;99.90
26621;DHT22;14253;44.840;10.444;2023-04-15T02:59:55;7.60;99.90
26621;DHT22;14253;44.840;10.444;2023-04-15T03:02:22;7.50;99.90
26621;DHT22;14253;44.840;10.444;2023-04-15T03:04:48;7.30;99.90
26621;DHT22;14253;44.840;10.444;2023-04-15T03:07:16;7.10;99.90
26621;DHT22;14253;44.840;10.444;2023-04-15T03:09:42;7.00;99.90
26621;DHT22;14253;44.840;10.444;2023-04-15T03:12:08;6.90;99.90
26621;DHT22;14253;44.840;10.444;2023-04-15T03:14:34;6.80;99.90
26621;DHT22;14253;44.840;10.444;2023-04-15T03:17:00;6.80;99.90
26621;DHT22;14253;44.840;10.444;2023-04-15T03:19:26;6.70;99.90
26621;DHT22;14253;44.840;10.444;2023-04-15T03:21:52;6.80;99.90
26621;DHT22;14253;44.840;10.444;2023-04-15T03:24:19;6.90;99.90
26621;DHT22;14253;44.840;10.444;2023-04-15T03:26:45;7.00;99.90
26621;DHT22;14253;44.840;10.444;2023-04-15T03:29:14;7.10;99.90
26621;DHT22;14253;44.840;10.444;2023-04-15T03:31:41;7.00;99.90
26621;DHT22;14253;44.840;10.444;2023-04-15T03:34:07;6.80;99.90
26621;DHT22;14253;44.840;10.444;2023-04-15T03:36:32;6.60;99.90
26621;DHT22;14253;44.840;10.444;2023-04-15T03:38:59;6.40;99.90
26621;DHT22;14253;44.840;10.444;2023-04-15T03:41:26;6.40;99.90
26621;DHT22;14253;44.840;10.444;2023-04-15T03:43:53;6.40;99.90
26621;DHT22;14253;44.840;10.444;2023-04-15T03:46:19;6.40;99.90
26621;DHT22;14253;44.840;10.444;2023-04-15T03:48:46;6.50;99.90
26621;DHT22;14253;44.840;10.444;2023-04-15T03:51:12;6.50;99.90
26621;DHT22;14253;44.840;10.444;2023-04-15T03:53:38;6.40;99.90
26621;DHT22;14253;44.840;10.444;2023-04-15T03:56:04;6.40;99.90
26621;DHT22;14253;44.840;10.444;2023-04-15T03:58:30;6.40;99.90
26621;DHT22;14253;44.840;10.444;2023-04-15T04:00:56;6.40;99.90
26621;DHT22;14253;44.840;10.444;2023-04-15T04:03:22;6.40;99.90
26621;DHT22;14253;44.840;10.444;2023-04-15T04:05:48;6.40;99.90
26621;DHT22;14253;44.840;10.444;2023-04-15T04:08:14;6.40;99.90
26621;DHT22;14253;44.840;10.444;2023-04-15T04:10:41;6.40;99.90
26621;DHT22;14253;44.840;10.444;2023-04-15T04:13:07;6.40;99.90
26621;DHT22;14253;44.840;10.444;2023-04-15T04:15:33;6.30;99.90
26621;DHT22;14253;44.840;10.444;2023-04-15T04:17:59;6.40;99.90
26621;DHT22;14253;44.840;10.444;2023-04-15T04:20:25;6.50;99.90
26621;DHT22;14253;44.840;10.444;2023-04-15T04:22:51;6.50;99.90
26621;DHT22;14253;44.840;10.444;2023-04-15T04:25:17;6.50;99.90
26621;DHT22;14253;44.840;10.444;2023-04-15T04:27:42;6.50;99.90
26621;DHT22;14253;44.840;10.444;2023-04-15T04:30:10;6.40;99.90
26621;DHT22;14253;44.840;10.444;2023-04-15T04:32:36;6.40;99.90
26621;DHT22;14253;44.840;10.444;2023-04-15T04:35:02;6.30;99.90
26621;DHT22;14253;44.840;10.444;2023-04-15T04:37:28;6.20;99.90
26621;DHT22;14253;44.840;10.444;2023-04-15T04:39:54;6.30;99.90
26621;DHT22;14253;44.840;10.444;2023-04-15T04:42:21;6.20;99.90
26621;DHT22;14253;44.840;10.444;2023-04-15T04:44:47;6.20;99.90
26621;DHT22;14253;44.840;10.444;2023-04-15T04:47:12;6.20;99.90
26621;DHT22;14253;44.840;10.444;2023-04-15T04:49:38;6.30;99.90
26621;DHT22;14253;44.840;10.444;2023-04-15T04:52:05;6.30;99.90
26621;DHT22;14253;44.840;10.444;2023-04-15T04:54:32;6.30;99.90
26621;DHT22;14253;44.840;10.444;2023-04-15T04:56:58;6.40;99.90
26621;DHT22;14253;44.840;10.444;2023-04-15T04:59:24;6.50;99.90
26621;DHT22;14253;44.840;10.444;2023-04-15T05:01:50;6.60;99.90
26621;DHT22;14253;44.840;10.444;2023-04-15T05:04:16;6.80;99.90
26621;DHT22;14253;44.840;10.444;2023-04-15T05:06:41;6.70;99.90
26621;DHT22;14253;44.840;10.444;2023-04-15T05:09:07;6.70;99.90
26621;DHT22;14253;44.840;10.444;2023-04-15T05:11:33;6.60;99.90
26621;DHT22;14253;44.840;10.444;2023-04-15T05:13:59;6.50;99.90
26621;DHT22;14253;44.840;10.444;2023-04-15T05:16:27;6.60;99.90
26621;DHT22;14253;44.840;10.444;2023-04-15T05:18:53;6.50;99.90
26621;DHT22;14253;44.840;10.444;2023-04-15T05:21:19;6.40;99.90
26621;DHT22;14253;44.840;10.444;2023-04-15T05:23:45;6.30;99.90
26621;DHT22;14253;44.840;10.444;2023-04-15T05:26:11;6.40;99.90
26621;DHT22;14253;44.840;10.444;2023-04-15T05:28:37;6.40;99.90
26621;DHT22;14253;44.840;10.444;2023-04-15T05:31:03;6.30;99.90
26621;DHT22;14253;44.840;10.444;2023-04-15T05:33:29;6.10;99.90
26621;DHT22;14253;44.840;10.444;2023-04-15T05:35:55;6.10;99.90
26621;DHT22;14253;44.840;10.444;2023-04-15T05:38:21;6.10;99.90
26621;DHT22;14253;44.840;10.444;2023-04-15T05:40:47;6.30;99.90
26621;DHT22;14253;44.840;10.444;2023-04-15T05:43:12;6.50;99.90
26621;DHT22;14253;44.840;10.444;2023-04-15T05:45:38;6.70;99.90
26621;DHT22;14253;44.840;10.444;2023-04-15T05:48:04;6.90;99.90
26621;DHT22;14253;44.840;10.444;2023-04-15T05:50:31;7.10;99.90
26621;DHT22;14253;44.840;10.444;2023-04-15T05:52:56;7.20;99.90
26621;DHT22;14253;44.840;10.444;2023-04-15T05:55:22;7.40;99.90
26621;DHT22;14253;44.840;10.444;2023-04-15T05:57:48;7.60;99.90
26621;DHT22;14253;44.840;10.444;2023-04-15T06:00:14;7.80;99.90
26621;DHT22;14253;44.840;10.444;2023-04-15T06:02:41;7.90;99.90
26621;DHT22;14253;44.840;10.444;2023-04-15T06:05:07;8.10;99.90
26621;DHT22;14253;44.840;10.444;2023-04-15T06:07:37;8.20;99.90
26621;DHT22;14253;44.840;10.444;2023-04-15T06:10:04;8.50;99.90
26621;DHT22;14253;44.840;10.444;2023-04-15T06:12:30;8.70;99.90
26621;DHT22;14253;44.840;10.444;2023-04-15T06:14:56;9.00;99.90
26621;DHT22;14253;44.840;10.444;2023-04-15T06:17:22;9.40;99.90
26621;DHT22;14253;44.840;10.444;2023-04-15T06:19:48;9.70;99.90
26621;DHT22;14253;44.840;10.444;2023-04-15T06:22:20;10.10;99.90
26621;DHT22;14253;44.840;10.444;2023-04-15T06:24:48;10.50;99.90
26621;DHT22;14253;44.840;10.444;2023-04-15T06:27:17;11.00;99.90
26621;DHT22;14253;44.840;10.444;2023-04-15T06:29:43;11.40;99.90
26621;DHT22;14253;44.840;10.444;2023-04-15T06:32:09;11.90;99.90
26621;DHT22;14253;44.840;10.444;2023-04-15T06:34:36;12.10;99.90
26621;DHT22;14253;44.840;10.444;2023-04-15T06:37:02;12.30;99.90
26621;DHT22;14253;44.840;10.444;2023-04-15T06:39:28;12.70;99.90
26621;DHT22;14253;44.840;10.444;2023-04-15T06:41:54;12.90;99.90
26621;DHT22;14253;44.840;10.444;2023-04-15T06:44:21;13.20;99.90
26621;DHT22;14253;44.840;10.444;2023-04-15T06:46:46;13.40;99.90
26621;DHT22;14253;44.840;10.444;2023-04-15T06:49:13;13.60;99.90
26621;DHT22;14253;44.840;10.444;2023-04-15T06:51:38;13.80;99.90
26621;DHT22;14253;44.840;10.444;2023-04-15T06:54:04;13.70;99.90
26621;DHT22;14253;44.840;10.444;2023-04-15T06:56:32;13.80;99.90
26621;DHT22;14253;44.840;10.444;2023-04-15T06:58:57;14.00;99.90
26621;DHT22;14253;44.840;10.444;2023-04-15T07:01:23;14.20;99.90
26621;DHT22;14253;44.840;10.444;2023-04-15T07:03:49;14.60;99.90
26621;DHT22;14253;44.840;10.444;2023-04-15T07:06:15;14.90;99.90
26621;DHT22;14253;44.840;10.444;2023-04-15T07:08:41;14.90;99.90
26621;DHT22;14253;44.840;10.444;2023-04-15T07:11:07;14.80;99.90
26621;DHT22;14253;44.840;10.444;2023-04-15T07:13:33;14.80;99.90
26621;DHT22;14253;44.840;10.444;2023-04-15T07:15:59;15.20;99.90
26621;DHT22;14253;44.840;10.444;2023-04-15T07:18:25;15.40;99.90
26621;DHT22;14253;44.840;10.444;2023-04-15T07:20:51;15.70;99.90
26621;DHT22;14253;44.840;10.444;2023-04-15T07:23:17;15.80;99.90
26621;DHT22;14253;44.840;10.444;2023-04-15T07:25:43;16.20;99.90
26621;DHT22;14253;44.840;10.444;2023-04-15T07:28:09;15.90;99.90
26621;DHT22;14253;44.840;10.444;2023-04-15T07:30:36;16.00;99.90
26621;DHT22;14253;44.840;10.444;2023-04-15T07:33:02;16.30;99.90
26621;DHT22;14253;44.840;10.444;2023-04-15T07:35:28;16.50;99.90
26621;DHT22;14253;44.840;10.444;2023-04-15T07:37:54;16.40;99.90
26621;DHT22;14253;44.840;10.444;2023-04-15T07:40:20;16.30;99.90
26621;DHT22;14253;44.840;10.444;2023-04-15T07:42:47;16.60;99.90
26621;DHT22;14253;44.840;10.444;2023-04-15T07:45:14;16.80;99.90
26621;DHT22;14253;44.840;10.444;2023-04-15T07:47:40;16.70;99.90
26621;DHT22;14253;44.840;10.444;2023-04-15T07:50:09;16.80;99.90
26621;DHT22;14253;44.840;10.444;2023-04-15T07:52:38;16.90;99.90
26621;DHT22;14253;44.840;10.444;2023-04-15T07:55:05;16.90;99.90
26621;DHT22;14253;44.840;10.444;2023-04-15T07:57:33;17.30;99.90
26621;DHT22;14253;44.840;10.444;2023-04-15T08:00:00;17.60;99.90
26621;DHT22;14253;44.840;10.444;2023-04-15T08:02:26;17.40;99.90
26621;DHT22;14253;44.840;10.444;2023-04-15T08:04:52;17.50;99.90
26621;DHT22;14253;44.840;10.444;2023-04-15T08:07:18;17.70;99.90
26621;DHT22;14253;44.840;10.444;2023-04-15T08:09:44;17.80;99.90
26621;DHT22;14253;44.840;10.444;2023-04-15T08:12:11;17.90;99.90
26621;DHT22;14253;44.840;10.444;2023-04-15T08:14:38;18.10;99.90
26621;DHT22;14253;44.840;10.444;2023-04-15T08:17:04;18.20;99.90
26621;DHT22;14253;44.840;10.444;2023-04-15T08:19:31;18.10;99.90
26621;DHT22;14253;44.840;10.444;2023-04-15T08:21:57;17.70;99.90
26621;DHT22;14253;44.840;10.444;2023-04-15T08:24:23;17.80;99.90
26621;DHT22;14253;44.840;10.444;2023-04-15T08:26:51;18.00;99.90
26621;DHT22;14253;44.840;10.444;2023-04-15T08:29:17;18.30;99.90
26621;DHT22;14253;44.840;10.444;2023-04-15T08:31:43;18.50;99.90
26621;DHT22;14253;44.840;10.444;2023-04-15T08:34:13;18.60;99.90
26621;DHT22;14253;44.840;10.444;2023-04-15T08:36:39;18.80;99.90
26621;DHT22;14253;44.840;10.444;2023-04-15T08:39:06;18.70;99.90
26621;DHT22;14253;44.840;10.444;2023-04-15T08:41:45;19.00;99.90
26621;DHT22;14253;44.840;10.444;2023-04-15T08:44:15;18.90;99.90
26621;DHT22;14253;44.840;10.444;2023-04-15T08:46:41;18.80;99.90
26621;DHT22;14253;44.840;10.444;2023-04-15T08:49:10;18.60;99.90
26621;DHT22;14253;44.840;10.444;2023-04-15T08:51:40;18.60;99.90
26621;DHT22;14253;44.840;10.444;2023-04-15T08:54:08;18.40;99.90
26621;DHT22;14253;44.840;10.444;2023-04-15T08:56:35;18.70;99.90
26621;DHT22;14253;44.840;10.444;2023-04-15T08:59:01;18.80;99.90
26621;DHT22;14253;44.840;10.444;2023-04-15T09:01:28;18.50;99.90
26621;DHT22;14253;44.840;10.444;2023-04-15T09:03:55;18.70;99.90
26621;DHT22;14253;44.840;10.444;2023-04-15T09:06:22;18.90;99.90
26621;DHT22;14253;44.840;10.444;2023-04-15T09:08:51;19.00;99.90
26621;DHT22;14253;44.840;10.444;2023-04-15T09:11:18;19.00;99.90
26621;DHT22;14253;44.840;10.444;2023-04-15T09:13:44;19.00;99.90
26621;DHT22;14253;44.840;10.444;2023-04-15T09:16:12;18.90;99.90
26621;DHT22;14253;44.840;10.444;2023-04-15T09:18:38;19.20;99.90
26621;DHT22;14253;44.840;10.444;2023-04-15T09:21:12;19.40;99.90
26621;DHT22;14253;44.840;10.444;2023-04-15T09:23:41;19.60;99.90
26621;DHT22;14253;44.840;10.444;2023-04-15T09:26:18;19.60;99.90
26621;DHT22;14253;44.840;10.444;2023-04-15T09:28:44;19.60;99.90
26621;DHT22;14253;44.840;10.444;2023-04-15T09:31:10;19.90;99.90
26621;DHT22;14253;44.840;10.444;2023-04-15T09:33:53;19.50;99.90
26621;DHT22;14253;44.840;10.444;2023-04-15T09:36:21;20.00;99.90
26621;DHT22;14253;44.840;10.444;2023-04-15T09:38:57;19.80;99.90
26621;DHT22;14253;44.840;10.444;2023-04-15T09:41:24;19.90;99.90
26621;DHT22;14253;44.840;10.444;2023-04-15T09:43:50;20.10;99.90
26621;DHT22;14253;44.840;10.444;2023-04-15T09:46:16;20.20;99.90
26621;DHT22;14253;44.840;10.444;2023-04-15T09:48:43;20.10;99.90
26621;DHT22;14253;44.840;10.444;2023-04-15T09:51:08;19.70;99.90
26621;DHT22;14253;44.840;10.444;2023-04-15T09:53:35;19.50;99.90
26621;DHT22;14253;44.840;10.444;2023-04-15T09:56:04;19.30;99.90
26621;DHT22;14253;44.840;10.444;2023-04-15T09:58:33;19.70;99.90
26621;DHT22;14253;44.840;10.444;2023-04-15T10:01:02;19.70;99.90
26621;DHT22;14253;44.840;10.444;2023-04-15T10:03:30;19.80;99.90
26621;DHT22;14253;44.840;10.444;2023-04-15T10:05:59;19.60;99.90
26621;DHT22;14253;44.840;10.444;2023-04-15T10:08:30;19.80;99.90
26621;DHT22;14253;44.840;10.444;2023-04-15T10:10:57;19.90;99.90
26621;DHT22;14253;44.840;10.444;2023-04-15T10:13:26;20.20;99.90
26621;DHT22;14253;44.840;10.444;2023-04-15T10:16:10;19.90;99.90
26621;DHT22;14253;44.840;10.444;2023-04-15T10:18:44;19.40;99.90
26621;DHT22;14253;44.840;10.444;2023-04-15T10:21:11;18.90;99.90
26621;DHT22;14253;44.840;10.444;2023-04-15T10:23:39;18.80;99.90
26621;DHT22;14253;44.840;10.444;2023-04-15T10:26:06;18.80;99.90
26621;DHT22;14253;44.840;10.444;2023-04-15T10:28:35;19.30;99.90
26621;DHT22;14253;44.840;10.444;2023-04-15T10:31:01;19.10;99.90
26621;DHT22;14253;44.840;10.444;2023-04-15T10:33:29;19.40;99.90
26621;DHT22;14253;44.840;10.444;2023-04-15T10:35:56;19.80;99.90
26621;DHT22;14253;44.840;10.444;2023-04-15T10:38:40;20.20;99.90
26621;DHT22;14253;44.840;10.444;2023-04-15T10:41:25;19.80;99.90
26621;DHT22;14253;44.840;10.444;2023-04-15T10:44:00;19.90;99.90
26621;DHT22;14253;44.840;10.444;2023-04-15T10:46:43;19.90;99.90
26621;DHT22;14253;44.840;10.444;2023-04-15T10:49:14;20.00;99.90
26621;DHT22;14253;44.840;10.444;2023-04-15T10:51:41;20.40;99.90
26621;DHT22;14253;44.840;10.444;2023-04-15T10:54:30;20.30;99.90
26621;DHT22;14253;44.840;10.444;2023-04-15T10:59:31;19.60;99.90
26621;DHT22;14253;44.840;10.444;2023-04-15T11:02:01;19.50;99.90
26621;DHT22;14253;44.840;10.444;2023-04-15T11:05:01;20.00;99.90
26621;DHT22;14253;44.840;10.444;2023-04-15T11:07:46;20.10;99.90
26621;DHT22;14253;44.840;10.444;2023-04-15T11:12:41;19.70;99.90
26621;DHT22;14253;44.840;10.444;2023-04-15T11:15:36;19.70;99.90
26621;DHT22;14253;44.840;10.444;2023-04-15T11:18:10;19.90;99.90
26621;DHT22;14253;44.840;10.444;2023-04-15T11:20:37;20.00;99.90
26621;DHT22;14253;44.840;10.444;2023-04-15T11:23:04;20.40;99.90
26621;DHT22;14253;44.840;10.444;2023-04-15T11:25:32;20.70;99.90
26621;DHT22;14253;44.840;10.444;2023-04-15T11:28:00;20.80;99.90
26621;DHT22;14253;44.840;10.444;2023-04-15T11:30:32;20.60;99.90
26621;DHT22;14253;44.840;10.444;2023-04-15T11:33:01;20.60;99.90
26621;DHT22;14253;44.840;10.444;2023-04-15T11:35:29;20.80;99.90
26621;DHT22;14253;44.840;10.444;2023-04-15T11:37:55;21.00;99.90
26621;DHT22;14253;44.840;10.444;2023-04-15T11:40:23;20.80;99.90
26621;DHT22;14253;44.840;10.444;2023-04-15T11:43:03;20.20;99.90
26621;DHT22;14253;44.840;10.444;2023-04-15T11:45:30;20.50;99.90
26621;DHT22;14253;44.840;10.444;2023-04-15T11:48:10;20.70;99.90
26621;DHT22;14253;44.840;10.444;2023-04-15T11:50:37;20.60;99.90
26621;DHT22;14253;44.840;10.444;2023-04-15T11:53:07;20.70;99.90
26621;DHT22;14253;44.840;10.444;2023-04-15T11:56:03;20.80;99.90
26621;DHT22;14253;44.840;10.444;2023-04-15T11:58:29;20.80;99.90
26621;DHT22;14253;44.840;10.444;2023-04-15T12:00:57;20.50;99.90
26621;DHT22;14253;44.840;10.444;2023-04-15T12:03:26;20.30;99.90
26621;DHT22;14253;44.840;10.444;2023-04-15T12:08:57;20.40;99.90
26621;DHT22;14253;44.840;10.444;2023-04-15T12:13:55;20.50;99.90
26621;DHT22;14253;44.840;10.444;2023-04-15T12:16:22;20.50;99.90
26621;DHT22;14253;44.840;10.444;2023-04-15T12:18:53;20.40;99.90
26621;DHT22;14253;44.840;10.444;2023-04-15T12:21:23;20.60;99.90
26621;DHT22;14253;44.840;10.444;2023-04-15T12:23:53;20.80;99.90
26621;DHT22;14253;44.840;10.444;2023-04-15T12:26:36;21.10;99.90
26621;DHT22;14253;44.840;10.444;2023-04-15T12:29:07;21.20;99.90
26621;DHT22;14253;44.840;10.444;2023-04-15T12:31:34;21.40;99.90
26621;DHT22;14253;44.840;10.444;2023-04-15T12:34:07;21.70;99.90
26621;DHT22;14253;44.840;10.444;2023-04-15T12:36:33;21.80;99.90
26621;DHT22;14253;44.840;10.444;2023-04-15T12:39:03;21.50;99.90
26621;DHT22;14253;44.840;10.444;2023-04-15T12:41:33;21.60;99.90
26621;DHT22;14253;44.840;10.444;2023-04-15T12:43:59;21.70;99.90
26621;DHT22;14253;44.840;10.444;2023-04-15T12:46:25;21.60;99.90
26621;DHT22;14253;44.840;10.444;2023-04-15T12:48:52;21.50;99.90
26621;DHT22;14253;44.840;10.444;2023-04-15T12:51:19;21.20;99.90
26621;DHT22;14253;44.840;10.444;2023-04-15T12:53:48;21.20;99.90
26621;DHT22;14253;44.840;10.444;2023-04-15T12:56:14;21.30;99.90
26621;DHT22;14253;44.840;10.444;2023-04-15T12:58:41;21.40;99.90
26621;DHT22;14253;44.840;10.444;2023-04-15T13:01:08;21.50;99.90
26621;DHT22;14253;44.840;10.444;2023-04-15T13:03:34;21.50;99.90
26621;DHT22;14253;44.840;10.444;2023-04-15T13:06:00;21.40;99.90
26621;DHT22;14253;44.840;10.444;2023-04-15T13:08:29;21.30;99.90
26621;DHT22;14253;44.840;10.444;2023-04-15T13:10:55;21.40;99.90
26621;DHT22;14253;44.840;10.444;2023-04-15T13:13:21;21.30;99.90
26621;DHT22;14253;44.840;10.444;2023-04-15T13:15:47;21.00;99.90
26621;DHT22;14253;44.840;10.444;2023-04-15T13:18:14;21.10;99.90
26621;DHT22;14253;44.840;10.444;2023-04-15T13:20:40;21.30;99.90
26621;DHT22;14253;44.840;10.444;2023-04-15T13:23:06;21.30;99.90
26621;DHT22;14253;44.840;10.444;2023-04-15T13:25:32;21.10;99.90
26621;DHT22;14253;44.840;10.444;2023-04-15T13:27:58;21.00;99.90
26621;DHT22;14253;44.840;10.444;2023-04-15T13:30:26;21.50;99.90
26621;DHT22;14253;44.840;10.444;2023-04-15T13:32:52;21.50;99.90
26621;DHT22;14253;44.840;10.444;2023-04-15T13:35:19;21.50;99.90
26621;DHT22;14253;44.840;10.444;2023-04-15T13:37:46;21.60;99.90
26621;DHT22;14253;44.840;10.444;2023-04-15T13:40:12;21.70;99.90
26621;DHT22;14253;44.840;10.444;2023-04-15T13:42:38;21.80;99.90
26621;DHT22;14253;44.840;10.444;2023-04-15T13:45:04;21.90;99.90
26621;DHT22;14253;44.840;10.444;2023-04-15T13:47:30;22.10;99.90
26621;DHT22;14253;44.840;10.444;2023-04-15T13:49:56;21.90;99.90
26621;DHT22;14253;44.840;10.444;2023-04-15T13:52:25;21.90;99.90
26621;DHT22;14253;44.840;10.444;2023-04-15T13:54:51;21.70;99.90
26621;DHT22;14253;44.840;10.444;2023-04-15T13:57:17;21.50;99.90
26621;DHT22;14253;44.840;10.444;2023-04-15T13:59:44;21.50;99.90
26621;DHT22;14253;44.840;10.444;2023-04-15T14:02:10;21.30;99.90
26621;DHT22;14253;44.840;10.444;2023-04-15T14:04:37;21.60;99.90
26621;DHT22;14253;44.840;10.444;2023-04-15T14:07:03;21.70;99.90
26621;DHT22;14253;44.840;10.444;2023-04-15T14:09:28;21.90;99.90
26621;DHT22;14253;44.840;10.444;2023-04-15T14:11:54;21.80;99.90
26621;DHT22;14253;44.840;10.444;2023-04-15T14:14:21;21.90;99.90
26621;DHT22;14253;44.840;10.444;2023-04-15T14:16:47;21.80;99.90
26621;DHT22;14253;44.840;10.444;2023-04-15T14:19:13;21.90;99.90
26621;DHT22;14253;44.840;10.444;2023-04-15T14:21:39;22.00;99.90
26621;DHT22;14253;44.840;10.444;2023-04-15T14:24:05;22.10;99.90
26621;DHT22;14253;44.840;10.444;2023-04-15T14:26:31;22.20;99.90
26621;DHT22;14253;44.840;10.444;2023-04-15T14:28:57;22.20;99.90
26621;DHT22;14253;44.840;10.444;2023-04-15T14:31:26;22.10;99.90
26621;DHT22;14253;44.840;10.444;2023-04-15T14:33:52;22.10;99.90
26621;DHT22;14253;44.840;10.444;2023-04-15T14:36:18;22.10;99.90
26621;DHT22;14253;44.840;10.444;2023-04-15T14:38:43;22.20;99.90
26621;DHT22;14253;44.840;10.444;2023-04-15T14:41:09;22.20;99.90
26621;DHT22;14253;44.840;10.444;2023-04-15T14:43:37;22.10;99.90
26621;DHT22;14253;44.840;10.444;2023-04-15T14:46:03;21.90;99.90
26621;DHT22;14253;44.840;10.444;2023-04-15T14:48:30;22.00;99.90
26621;DHT22;14253;44.840;10.444;2023-04-15T14:50:58;22.20;99.90
26621;DHT22;14253;44.840;10.444;2023-04-15T14:53:24;22.00;99.90
26621;DHT22;14253;44.840;10.444;2023-04-15T14:55:50;22.10;99.90
26621;DHT22;14253;44.840;10.444;2023-04-15T14:58:16;22.00;99.90
26621;DHT22;14253;44.840;10.444;2023-04-15T15:00:42;21.90;99.90
26621;DHT22;14253;44.840;10.444;2023-04-15T15:03:09;21.70;99.90
26621;DHT22;14253;44.840;10.444;2023-04-15T15:05:44;21.90;99.90
26621;DHT22;14253;44.840;10.444;2023-04-15T15:08:11;21.80;99.90
26621;DHT22;14253;44.840;10.444;2023-04-15T15:10:39;21.90;99.90
26621;DHT22;14253;44.840;10.444;2023-04-15T15:13:06;21.70;99.90
26621;DHT22;14253;44.840;10.444;2023-04-15T15:15:33;21.10;99.90
26621;DHT22;14253;44.840;10.444;2023-04-15T15:18:00;20.80;99.90
26621;DHT22;14253;44.840;10.444;2023-04-15T15:20:26;20.40;99.90
26621;DHT22;14253;44.840;10.444;2023-04-15T15:22:52;20.50;99.90
26621;DHT22;14253;44.840;10.444;2023-04-15T15:25:18;20.90;99.90
26621;DHT22;14253;44.840;10.444;2023-04-15T15:27:44;21.40;99.90
26621;DHT22;14253;44.840;10.444;2023-04-15T15:30:10;22.10;99.90
26621;DHT22;14253;44.840;10.444;2023-04-15T15:32:40;22.40;99.90
26621;DHT22;14253;44.840;10.444;2023-04-15T15:35:07;22.70;99.90